sensor_id;sensor_type;location;lat;lon;timestamp;pressure;altitude;pressure_sealevel;temperature;humidity
82305;BME280;71914;47.382;8.168;2023-09-07T00:01:53;97094.53;;;17.96;77.19
82305;BME280;71914;47.382;8.168;2023-09-07T00:04:20;97094.00;;;17.92;77.29
82305;BME280;71914;47.382;8.168;2023-09-07T00:06:48;97100.66;;;17.88;77.47
82305;BME280;71914;47.382;8.168;2023-09-07T00:09:17;97097.72;;;17.83;77.49
82305;BME280;71914;47.382;8.168;2023-09-07T00:11:47;97095.75;;;17.76;77.91
82305;BME280;71914;47.382;8.168;2023-09-07T00:14:15;97102.69;;;17.78;77.75
82305;BME280;71914;47.382;8.168;2023-09-07T00:16:41;97103.00;;;17.83;78.09
82305;BME280;71914;47.382;8.168;2023-09-07T00:19:07;97102.66;;;17.86;77.17
82305;BME280;71914;47.382;8.168;2023-09-07T00:21:34;97108.63;;;17.88;77.11
82305;BME280;71914;47.382;8.168;2023-09-07T00:24:02;97107.13;;;17.85;77.34
82305;BME280;71914;47.382;8.168;2023-09-07T00:26:30;97104.84;;;17.82;77.38
82305;BME280;71914;47.382;8.168;2023-09-07T00:28:56;97104.22;;;17.72;77.50
82305;BME280;71914;47.382;8.168;2023-09-07T00:31:21;97112.81;;;17.74;77.72
82305;BME280;71914;47.382;8.168;2023-09-07T00:33:47;97109.03;;;17.68;77.86
82305;BME280;71914;47.382;8.168;2023-09-07T00:36:12;97109.22;;;17.67;77.67
82305;BME280;71914;47.382;8.168;2023-09-07T00:38:39;97100.47;;;17.58;77.60
82305;BME280;71914;47.382;8.168;2023-09-07T00:41:06;97113.22;;;17.54;78.16
82305;BME280;71914;47.382;8.168;2023-09-07T00:43:34;97110.75;;;17.53;78.00
82305;BME280;71914;47.382;8.168;2023-09-07T00:46:00;97110.31;;;17.49;78.52
82305;BME280;71914;47.382;8.168;2023-09-07T00:48:25;97104.34;;;17.47;78.42
82305;BME280;71914;47.382;8.168;2023-09-07T00:50:51;97105.84;;;17.41;79.14
82305;BME280;71914;47.382;8.168;2023-09-07T00:53:17;97105.84;;;17.41;78.87
82305;BME280;71914;47.382;8.168;2023-09-07T00:55:45;97112.78;;;17.42;79.02
82305;BME280;71914;47.382;8.168;2023-09-07T00:58:11;97108.81;;;17.47;78.39
82305;BME280;71914;47.382;8.168;2023-09-07T01:00:37;97108.63;;;17.48;77.92
82305;BME280;71914;47.382;8.168;2023-09-07T01:03:03;97107.78;;;17.48;78.40
82305;BME280;71914;47.382;8.168;2023-09-07T01:05:34;97110.13;;;17.51;78.26
82305;BME280;71914;47.382;8.168;2023-09-07T01:08:05;97107.66;;;17.49;78.02
82305;BME280;71914;47.382;8.168;2023-09-07T01:10:33;97109.13;;;17.43;78.20
82305;BME280;71914;47.382;8.168;2023-09-07T01:13:00;97106.88;;;17.32;78.79
82305;BME280;71914;47.382;8.168;2023-09-07T01:15:25;97106.56;;;17.27;78.76
82305;BME280;71914;47.382;8.168;2023-09-07T01:17:51;97104.06;;;17.25;79.17
82305;BME280;71914;47.382;8.168;2023-09-07T01:20:17;97106.06;;;17.23;79.22
82305;BME280;71914;47.382;8.168;2023-09-07T01:22:46;97102.56;;;17.23;79.21
82305;BME280;71914;47.382;8.168;2023-09-07T01:25:13;97105.09;;;17.24;78.89
82305;BME280;71914;47.382;8.168;2023-09-07T01:27:39;97103.06;;;17.26;79.35
82305;BME280;71914;47.382;8.168;2023-09-07T01:30:06;97094.94;;;17.28;78.99
82305;BME280;71914;47.382;8.168;2023-09-07T01:32:32;97096.78;;;17.28;78.17
82305;BME280;71914;47.382;8.168;2023-09-07T01:34:58;97098.47;;;17.20;78.48
82305;BME280;71914;47.382;8.168;2023-09-07T01:37:24;97100.63;;;17.17;78.94
82305;BME280;71914;47.382;8.168;2023-09-07T01:39:51;97096.50;;;17.14;79.16
82305;BME280;71914;47.382;8.168;2023-09-07T01:42:19;97102.97;;;17.12;78.29
82305;BME280;71914;47.382;8.168;2023-09-07T01:44:47;97100.00;;;17.06;78.10
82305;BME280;71914;47.382;8.168;2023-09-07T01:47:18;97083.63;;;16.95;78.45
82305;BME280;71914;47.382;8.168;2023-09-07T01:49:44;97100.69;;;16.92;79.17
82305;BME280;71914;47.382;8.168;2023-09-07T01:52:10;97101.81;;;16.89;79.67
82305;BME280;71914;47.382;8.168;2023-09-07T01:54:35;97094.56;;;16.91;79.51
82305;BME280;71914;47.382;8.168;2023-09-07T01:57:02;97104.47;;;16.89;79.47
82305;BME280;71914;47.382;8.168;2023-09-07T01:59:28;97103.31;;;16.84;79.79
82305;BME280;71914;47.382;8.168;2023-09-07T02:01:53;97106.09;;;16.82;79.88
82305;BME280;71914;47.382;8.168;2023-09-07T02:04:19;97104.31;;;16.83;79.87
82305;BME280;71914;47.382;8.168;2023-09-07T02:06:44;97102.81;;;16.80;79.65
82305;BME280;71914;47.382;8.168;2023-09-07T02:09:10;97104.94;;;16.85;79.69
82305;BME280;71914;47.382;8.168;2023-09-07T02:11:35;97091.09;;;16.91;79.38
82305;BME280;71914;47.382;8.168;2023-09-07T02:14:02;97098.66;;;16.86;79.37
82305;BME280;71914;47.382;8.168;2023-09-07T02:16:31;97097.19;;;16.83;79.51
82305;BME280;71914;47.382;8.168;2023-09-07T02:19:00;97103.63;;;16.81;79.41
82305;BME280;71914;47.382;8.168;2023-09-07T02:21:26;97100.50;;;16.69;79.04
82305;BME280;71914;47.382;8.168;2023-09-07T02:23:52;97099.88;;;16.67;80.02
82305;BME280;71914;47.382;8.168;2023-09-07T02:26:18;97093.56;;;16.76;79.49
82305;BME280;71914;47.382;8.168;2023-09-07T02:28:43;97095.69;;;16.81;79.73
82305;BME280;71914;47.382;8.168;2023-09-07T02:31:10;97097.84;;;16.85;79.20
82305;BME280;71914;47.382;8.168;2023-09-07T02:33:36;97087.09;;;16.87;79.00
82305;BME280;71914;47.382;8.168;2023-09-07T02:36:02;97083.94;;;16.83;78.87
82305;BME280;71914;47.382;8.168;2023-09-07T02:38:28;97091.56;;;16.78;79.43
82305;BME280;71914;47.382;8.168;2023-09-07T02:40:56;97096.84;;;16.78;79.29
82305;BME280;71914;47.382;8.168;2023-09-07T02:43:22;97097.88;;;16.77;78.97
82305;BME280;71914;47.382;8.168;2023-09-07T02:45:48;97092.59;;;16.77;78.83
82305;BME280;71914;47.382;8.168;2023-09-07T02:48:16;97099.50;;;16.78;79.01
82305;BME280;71914;47.382;8.168;2023-09-07T02:50:41;97095.72;;;16.72;79.19
82305;BME280;71914;47.382;8.168;2023-09-07T02:53:08;97100.03;;;16.73;78.84
82305;BME280;71914;47.382;8.168;2023-09-07T02:55:33;97102.81;;;16.64;79.03
82305;BME280;71914;47.382;8.168;2023-09-07T02:58:02;97096.72;;;16.55;79.44
82305;BME280;71914;47.382;8.168;2023-09-07T03:00:28;97098.06;;;16.51;79.61
82305;BME280;71914;47.382;8.168;2023-09-07T03:02:53;97102.00;;;16.47;79.95
82305;BME280;71914;47.382;8.168;2023-09-07T03:05:20;97102.00;;;16.47;80.04
82305;BME280;71914;47.382;8.168;2023-09-07T03:07:46;97099.34;;;16.38;79.79
82305;BME280;71914;47.382;8.168;2023-09-07T03:10:13;97105.63;;;16.29;80.13
82305;BME280;71914;47.382;8.168;2023-09-07T03:12:38;97105.63;;;16.29;80.44
82305;BME280;71914;47.382;8.168;2023-09-07T03:15:05;97107.63;;;16.35;80.66
82305;BME280;71914;47.382;8.168;2023-09-07T03:17:30;97108.78;;;16.41;80.39
82305;BME280;71914;47.382;8.168;2023-09-07T03:19:56;97105.16;;;16.42;80.19
82305;BME280;71914;47.382;8.168;2023-09-07T03:22:23;97115.41;;;16.45;80.03
82305;BME280;71914;47.382;8.168;2023-09-07T03:24:50;97105.16;;;16.50;79.79
82305;BME280;71914;47.382;8.168;2023-09-07T03:27:15;97106.63;;;16.53;79.44
82305;BME280;71914;47.382;8.168;2023-09-07T03:29:41;97098.69;;;16.53;79.06
82305;BME280;71914;47.382;8.168;2023-09-07T03:32:07;97098.69;;;16.53;79.28
82305;BME280;71914;47.382;8.168;2023-09-07T03:34:33;97103.66;;;16.48;78.81
82305;BME280;71914;47.382;8.168;2023-09-07T03:36:59;97108.28;;;16.37;79.26
82305;BME280;71914;47.382;8.168;2023-09-07T03:39:27;97102.66;;;16.32;79.39
82305;BME280;71914;47.382;8.168;2023-09-07T03:41:52;97107.59;;;16.27;79.67
82305;BME280;71914;47.382;8.168;2023-09-07T03:44:18;97105.31;;;16.24;79.97
82305;BME280;71914;47.382;8.168;2023-09-07T03:46:43;97104.50;;;16.23;80.00
82305;BME280;71914;47.382;8.168;2023-09-07T03:49:09;97104.66;;;16.22;80.16
82305;BME280;71914;47.382;8.168;2023-09-07T03:51:34;97109.94;;;16.22;80.06
82305;BME280;71914;47.382;8.168;2023-09-07T03:54:00;97104.66;;;16.22;80.07
82305;BME280;71914;47.382;8.168;2023-09-07T03:56:27;97104.66;;;16.22;80.43
82305;BME280;71914;47.382;8.168;2023-09-07T03:58:52;97105.59;;;16.13;78.78
82305;BME280;71914;47.382;8.168;2023-09-07T04:01:18;97100.34;;;15.62;80.31
82305;BME280;71914;47.382;8.168;2023-09-07T04:03:43;97104.78;;;15.18;81.98
82305;BME280;71914;47.382;8.168;2023-09-07T04:06:09;97107.69;;;14.81;83.42
82305;BME280;71914;47.382;8.168;2023-09-07T04:08:34;97101.06;;;14.58;84.33
82305;BME280;71914;47.382;8.168;2023-09-07T04:11:03;97106.34;;;14.40;84.81
82305;BME280;71914;47.382;8.168;2023-09-07T04:13:30;97109.25;;;14.29;85.90
82305;BME280;71914;47.382;8.168;2023-09-07T04:15:56;97110.91;;;14.30;86.41
82305;BME280;71914;47.382;8.168;2023-09-07T04:18:21;97109.28;;;14.73;87.00
82305;BME280;71914;47.382;8.168;2023-09-07T04:20:47;97108.50;;;15.07;85.43
82305;BME280;71914;47.382;8.168;2023-09-07T04:23:12;97110.97;;;15.35;84.25
82305;BME280;71914;47.382;8.168;2023-09-07T04:25:38;97107.75;;;15.50;83.24
82305;BME280;71914;47.382;8.168;2023-09-07T04:28:06;97118.34;;;15.66;82.60
82305;BME280;71914;47.382;8.168;2023-09-07T04:30:37;97120.00;;;15.67;82.35
82305;BME280;71914;47.382;8.168;2023-09-07T04:33:03;97118.69;;;15.71;82.03
82305;BME280;71914;47.382;8.168;2023-09-07T04:35:29;97123.34;;;15.77;81.34
82305;BME280;71914;47.382;8.168;2023-09-07T04:37:55;97125.31;;;15.75;81.45
82305;BME280;71914;47.382;8.168;2023-09-07T04:40:21;97122.03;;;15.73;81.02
82305;BME280;71914;47.382;8.168;2023-09-07T04:42:47;97121.50;;;15.70;80.99
82305;BME280;71914;47.382;8.168;2023-09-07T04:45:12;97128.75;;;15.68;80.98
82305;BME280;71914;47.382;8.168;2023-09-07T04:47:39;97119.50;;;15.64;80.94
82305;BME280;71914;47.382;8.168;2023-09-07T04:50:06;97125.47;;;15.66;80.88
82305;BME280;71914;47.382;8.168;2023-09-07T04:52:31;97124.63;;;15.65;80.62
82305;BME280;71914;47.382;8.168;2023-09-07T04:54:57;97121.84;;;15.67;81.12
82305;BME280;71914;47.382;8.168;2023-09-07T04:57:27;97121.13;;;15.56;80.75
82305;BME280;71914;47.382;8.168;2023-09-07T04:59:52;97116.16;;;15.53;81.18
82305;BME280;71914;47.382;8.168;2023-09-07T05:02:18;97128.22;;;15.56;80.93
82305;BME280;71914;47.382;8.168;2023-09-07T05:04:45;97125.63;;;15.64;81.48
82305;BME280;71914;47.382;8.168;2023-09-07T05:07:10;97120.19;;;15.66;81.42
82305;BME280;71914;47.382;8.168;2023-09-07T05:09:36;97126.78;;;15.70;82.17
82305;BME280;71914;47.382;8.168;2023-09-07T05:12:02;97126.97;;;15.76;81.86
82305;BME280;71914;47.382;8.168;2023-09-07T05:14:27;97118.69;;;15.71;82.45
82305;BME280;71914;47.382;8.168;2023-09-07T05:16:54;97133.91;;;15.69;82.26
82305;BME280;71914;47.382;8.168;2023-09-07T05:19:21;97132.72;;;15.64;82.20
82305;BME280;71914;47.382;8.168;2023-09-07T05:21:48;97130.59;;;15.67;81.68
82305;BME280;71914;47.382;8.168;2023-09-07T05:24:14;97130.25;;;15.70;81.99
82305;BME280;71914;47.382;8.168;2023-09-07T05:26:43;97138.53;;;15.75;81.75
82305;BME280;71914;47.382;8.168;2023-09-07T05:29:09;97143.22;;;15.82;81.60
82305;BME280;71914;47.382;8.168;2023-09-07T05:31:35;97141.09;;;15.93;81.56
82305;BME280;71914;47.382;8.168;2023-09-07T05:34:00;97138.47;;;16.02;80.88
82305;BME280;71914;47.382;8.168;2023-09-07T05:36:26;97143.44;;;16.05;80.64
82305;BME280;71914;47.382;8.168;2023-09-07T05:38:53;97153.19;;;16.13;80.46
82305;BME280;71914;47.382;8.168;2023-09-07T05:41:19;97149.41;;;16.15;80.03
82305;BME280;71914;47.382;8.168;2023-09-07T05:43:44;97147.44;;;16.17;79.71
82305;BME280;71914;47.382;8.168;2023-09-07T05:46:10;97153.41;;;16.27;79.75
82305;BME280;71914;47.382;8.168;2023-09-07T05:48:35;97157.19;;;16.41;78.89
82305;BME280;71914;47.382;8.168;2023-09-07T05:51:01;97158.72;;;16.52;78.37
82305;BME280;71914;47.382;8.168;2023-09-07T05:53:31;97155.09;;;16.62;77.96
82305;BME280;71914;47.382;8.168;2023-09-07T05:55:58;97161.19;;;16.70;77.41
82305;BME280;71914;47.382;8.168;2023-09-07T05:58:24;97155.06;;;16.78;76.96
82305;BME280;71914;47.382;8.168;2023-09-07T06:00:49;97149.44;;;16.89;76.72
82305;BME280;71914;47.382;8.168;2023-09-07T06:03:15;97154.59;;;16.99;76.36
82305;BME280;71914;47.382;8.168;2023-09-07T06:05:40;97152.28;;;17.04;75.63
82305;BME280;71914;47.382;8.168;2023-09-07T06:08:06;97154.94;;;17.13;75.54
82305;BME280;71914;47.382;8.168;2023-09-07T06:10:32;97153.91;;;17.14;75.59
82305;BME280;71914;47.382;8.168;2023-09-07T06:12:59;97156.56;;;17.22;75.74
82305;BME280;71914;47.382;8.168;2023-09-07T06:15:26;97159.19;;;17.30;75.45
82305;BME280;71914;47.382;8.168;2023-09-07T06:17:52;97156.00;;;17.43;75.02
82305;BME280;71914;47.382;8.168;2023-09-07T06:20:17;97154.13;;;17.52;74.77
82305;BME280;71914;47.382;8.168;2023-09-07T06:22:44;97152.81;;;17.56;74.21
82305;BME280;71914;47.382;8.168;2023-09-07T06:25:10;97156.28;;;17.56;72.03
82305;BME280;71914;47.382;8.168;2023-09-07T06:27:35;97154.91;;;17.69;73.48
82305;BME280;71914;47.382;8.168;2023-09-07T06:30:03;97155.41;;;17.72;73.38
82305;BME280;71914;47.382;8.168;2023-09-07T06:32:29;97155.56;;;17.71;72.82
82305;BME280;71914;47.382;8.168;2023-09-07T06:34:55;97153.75;;;17.71;72.97
82305;BME280;71914;47.382;8.168;2023-09-07T06:37:20;97158.22;;;17.71;72.71
82305;BME280;71914;47.382;8.168;2023-09-07T06:39:45;97157.53;;;17.77;70.14
82305;BME280;71914;47.382;8.168;2023-09-07T06:42:11;97161.44;;;17.50;72.48
82305;BME280;71914;47.382;8.168;2023-09-07T06:44:36;97158.44;;;17.53;70.95
82305;BME280;71914;47.382;8.168;2023-09-07T06:47:04;97161.81;;;17.38;71.23
82305;BME280;71914;47.382;8.168;2023-09-07T06:49:29;97166.78;;;17.33;70.77
82305;BME280;71914;47.382;8.168;2023-09-07T06:51:55;97166.63;;;17.35;71.20
82305;BME280;71914;47.382;8.168;2023-09-07T06:54:20;97163.78;;;17.45;72.51
82305;BME280;71914;47.382;8.168;2023-09-07T06:56:46;97166.59;;;17.43;72.06
82305;BME280;71914;47.382;8.168;2023-09-07T06:59:11;97163.91;;;17.51;70.56
82305;BME280;71914;47.382;8.168;2023-09-07T07:01:37;97161.09;;;17.61;70.56
82305;BME280;71914;47.382;8.168;2023-09-07T07:04:04;97163.56;;;17.63;69.26
82305;BME280;71914;47.382;8.168;2023-09-07T07:06:29;97168.06;;;17.54;70.24
82305;BME280;71914;47.382;8.168;2023-09-07T07:08:55;97173.31;;;17.62;70.79
82305;BME280;71914;47.382;8.168;2023-09-07T07:11:20;97170.34;;;17.65;69.78
82305;BME280;71914;47.382;8.168;2023-09-07T07:13:46;97170.94;;;17.84;70.90
82305;BME280;71914;47.382;8.168;2023-09-07T07:16:11;97173.53;;;18.00;69.88
82305;BME280;71914;47.382;8.168;2023-09-07T07:18:37;97171.53;;;18.02;69.48
82305;BME280;71914;47.382;8.168;2023-09-07T07:21:04;97173.97;;;18.12;68.22
82305;BME280;71914;47.382;8.168;2023-09-07T07:23:29;97173.75;;;18.22;68.75
82305;BME280;71914;47.382;8.168;2023-09-07T07:25:55;97169.25;;;18.22;68.55
82305;BME280;71914;47.382;8.168;2023-09-07T07:28:21;97175.22;;;18.24;68.55
82305;BME280;71914;47.382;8.168;2023-09-07T07:30:46;97177.91;;;18.48;67.67
82305;BME280;71914;47.382;8.168;2023-09-07T07:33:13;97174.22;;;18.49;66.14
82305;BME280;71914;47.382;8.168;2023-09-07T07:35:39;97175.00;;;18.34;68.23
82305;BME280;71914;47.382;8.168;2023-09-07T07:38:05;97180.69;;;18.54;68.45
82305;BME280;71914;47.382;8.168;2023-09-07T07:40:34;97171.47;;;18.88;67.67
82305;BME280;71914;47.382;8.168;2023-09-07T07:42:59;97175.75;;;19.13;67.00
82305;BME280;71914;47.382;8.168;2023-09-07T07:45:25;97182.91;;;19.27;66.13
82305;BME280;71914;47.382;8.168;2023-09-07T07:47:51;97181.91;;;19.28;65.34
82305;BME280;71914;47.382;8.168;2023-09-07T07:50:17;97183.56;;;19.29;65.03
82305;BME280;71914;47.382;8.168;2023-09-07T07:52:43;97187.22;;;19.28;65.04
82305;BME280;71914;47.382;8.168;2023-09-07T07:55:10;97176.78;;;19.41;64.17
82305;BME280;71914;47.382;8.168;2023-09-07T07:57:36;97174.97;;;19.57;64.90
82305;BME280;71914;47.382;8.168;2023-09-07T08:00:02;97170.94;;;19.61;63.65
82305;BME280;71914;47.382;8.168;2023-09-07T08:02:29;97166.16;;;19.71;65.32
82305;BME280;71914;47.382;8.168;2023-09-07T08:04:54;97169.63;;;19.87;64.54
82305;BME280;71914;47.382;8.168;2023-09-07T08:07:20;97170.72;;;19.78;64.15
82305;BME280;71914;47.382;8.168;2023-09-07T08:09:45;97172.22;;;19.95;64.54
82305;BME280;71914;47.382;8.168;2023-09-07T08:12:12;97167.94;;;20.16;64.63
82305;BME280;71914;47.382;8.168;2023-09-07T08:14:38;97165.72;;;20.34;63.74
82305;BME280;71914;47.382;8.168;2023-09-07T08:17:03;97164.00;;;20.48;61.51
82305;BME280;71914;47.382;8.168;2023-09-07T08:19:29;97163.59;;;20.30;62.39
82305;BME280;71914;47.382;8.168;2023-09-07T08:21:55;97166.06;;;20.31;61.44
82305;BME280;71914;47.382;8.168;2023-09-07T08:24:20;97170.88;;;20.21;61.50
82305;BME280;71914;47.382;8.168;2023-09-07T08:26:46;97161.75;;;20.30;62.28
82305;BME280;71914;47.382;8.168;2023-09-07T08:29:17;97159.59;;;20.40;62.79
82305;BME280;71914;47.382;8.168;2023-09-07T08:31:45;97162.44;;;20.54;61.71
82305;BME280;71914;47.382;8.168;2023-09-07T08:34:14;97163.44;;;20.53;61.23
82305;BME280;71914;47.382;8.168;2023-09-07T08:36:40;97162.34;;;20.90;61.94
82305;BME280;71914;47.382;8.168;2023-09-07T08:39:06;97163.72;;;21.08;60.77
82305;BME280;71914;47.382;8.168;2023-09-07T08:41:36;97163.22;;;21.26;61.12
82305;BME280;71914;47.382;8.168;2023-09-07T08:44:07;97160.72;;;21.18;60.54
82305;BME280;71914;47.382;8.168;2023-09-07T08:46:36;97157.31;;;21.31;59.77
82305;BME280;71914;47.382;8.168;2023-09-07T08:49:03;97150.38;;;21.36;59.93
82305;BME280;71914;47.382;8.168;2023-09-07T08:51:30;97152.84;;;21.66;60.43
82305;BME280;71914;47.382;8.168;2023-09-07T08:53:56;97144.22;;;21.64;58.80
82305;BME280;71914;47.382;8.168;2023-09-07T08:56:22;97142.56;;;21.63;59.50
82305;BME280;71914;47.382;8.168;2023-09-07T08:58:48;97135.78;;;21.61;59.32
82305;BME280;71914;47.382;8.168;2023-09-07T09:01:16;97143.81;;;21.67;59.66
82305;BME280;71914;47.382;8.168;2023-09-07T09:03:43;97144.63;;;21.68;58.94
82305;BME280;71914;47.382;8.168;2023-09-07T09:06:10;97140.94;;;21.62;58.80
82305;BME280;71914;47.382;8.168;2023-09-07T09:08:43;97148.03;;;21.90;59.94
82305;BME280;71914;47.382;8.168;2023-09-07T09:11:08;97145.59;;;22.02;59.91
82305;BME280;71914;47.382;8.168;2023-09-07T09:13:34;97156.34;;;22.22;58.33
82305;BME280;71914;47.382;8.168;2023-09-07T09:16:00;97161.88;;;22.27;58.78
82305;BME280;71914;47.382;8.168;2023-09-07T09:18:29;97153.88;;;22.20;58.96
82305;BME280;71914;47.382;8.168;2023-09-07T09:20:56;97151.41;;;22.19;59.79
82305;BME280;71914;47.382;8.168;2023-09-07T09:23:21;97142.81;;;22.24;59.02
82305;BME280;71914;47.382;8.168;2023-09-07T09:25:47;97153.78;;;22.76;57.94
82305;BME280;71914;47.382;8.168;2023-09-07T09:28:13;97146.81;;;23.08;56.44
82305;BME280;71914;47.382;8.168;2023-09-07T09:30:38;97146.41;;;23.25;56.90
82305;BME280;71914;47.382;8.168;2023-09-07T09:33:05;97147.22;;;23.32;56.94
82305;BME280;71914;47.382;8.168;2023-09-07T09:35:31;97142.84;;;23.58;56.87
82305;BME280;71914;47.382;8.168;2023-09-07T09:38:01;97133.97;;;23.70;56.73
82305;BME280;71914;47.382;8.168;2023-09-07T09:40:30;97137.53;;;23.44;55.59
82305;BME280;71914;47.382;8.168;2023-09-07T09:42:57;97125.84;;;23.05;56.31
82305;BME280;71914;47.382;8.168;2023-09-07T09:45:23;97131.41;;;23.10;57.96
82305;BME280;71914;47.382;8.168;2023-09-07T09:47:53;97132.19;;;23.31;57.13
82305;BME280;71914;47.382;8.168;2023-09-07T09:50:20;97137.72;;;23.43;55.92
82305;BME280;71914;47.382;8.168;2023-09-07T09:52:45;97131.31;;;23.57;56.36
82305;BME280;71914;47.382;8.168;2023-09-07T09:55:13;97126.78;;;23.64;56.25
82305;BME280;71914;47.382;8.168;2023-09-07T09:57:39;97128.59;;;23.77;56.33
82305;BME280;71914;47.382;8.168;2023-09-07T10:00:04;97116.03;;;23.78;56.70
82305;BME280;71914;47.382;8.168;2023-09-07T10:02:43;97126.84;;;23.31;56.94
82305;BME280;71914;47.382;8.168;2023-09-07T10:05:10;97118.78;;;23.58;57.06
82305;BME280;71914;47.382;8.168;2023-09-07T10:07:43;97124.16;;;24.03;54.84
82305;BME280;71914;47.382;8.168;2023-09-07T10:10:14;97109.44;;;24.26;55.51
82305;BME280;71914;47.382;8.168;2023-09-07T10:12:43;97114.75;;;24.64;54.67
82305;BME280;71914;47.382;8.168;2023-09-07T10:15:19;97110.50;;;24.82;53.57
82305;BME280;71914;47.382;8.168;2023-09-07T10:17:45;97114.84;;;25.01;52.70
82305;BME280;71914;47.382;8.168;2023-09-07T10:20:11;97117.00;;;25.18;52.67
82305;BME280;71914;47.382;8.168;2023-09-07T10:22:37;97116.38;;;25.16;53.14
82305;BME280;71914;47.382;8.168;2023-09-07T10:25:03;97113.34;;;25.31;51.87
82305;BME280;71914;47.382;8.168;2023-09-07T10:27:37;97101.03;;;25.48;52.69
82305;BME280;71914;47.382;8.168;2023-09-07T10:30:09;97110.88;;;25.36;52.25
82305;BME280;71914;47.382;8.168;2023-09-07T10:32:38;97096.00;;;25.33;52.37
82305;BME280;71914;47.382;8.168;2023-09-07T10:35:12;97104.47;;;25.12;53.03
82305;BME280;71914;47.382;8.168;2023-09-07T10:37:39;97104.22;;;25.39;52.50
82305;BME280;71914;47.382;8.168;2023-09-07T10:40:05;97093.66;;;25.62;52.21
82305;BME280;71914;47.382;8.168;2023-09-07T10:42:38;97086.75;;;25.85;51.99
82305;BME280;71914;47.382;8.168;2023-09-07T10:45:11;97091.00;;;25.93;50.64
82305;BME280;71914;47.382;8.168;2023-09-07T10:47:40;97091.28;;;25.84;50.41
82305;BME280;71914;47.382;8.168;2023-09-07T10:50:06;97088.88;;;25.46;50.34
82305;BME280;71914;47.382;8.168;2023-09-07T10:52:33;97084.84;;;25.37;50.92
82305;BME280;71914;47.382;8.168;2023-09-07T10:54:58;97090.25;;;25.30;50.70
82305;BME280;71914;47.382;8.168;2023-09-07T10:57:24;97088.38;;;25.12;51.12
82305;BME280;71914;47.382;8.168;2023-09-07T10:59:51;97082.75;;;24.95;52.96
82305;BME280;71914;47.382;8.168;2023-09-07T11:02:20;97089.50;;;25.23;52.39
82305;BME280;71914;47.382;8.168;2023-09-07T11:04:45;97074.94;;;25.37;51.35
82305;BME280;71914;47.382;8.168;2023-09-07T11:07:11;97071.75;;;25.47;50.27
82305;BME280;71914;47.382;8.168;2023-09-07T11:09:40;97070.31;;;25.44;50.48
82305;BME280;71914;47.382;8.168;2023-09-07T11:12:06;97071.25;;;25.31;50.79
82305;BME280;71914;47.382;8.168;2023-09-07T11:14:33;97071.03;;;25.33;50.81
82305;BME280;71914;47.382;8.168;2023-09-07T11:17:02;97068.81;;;25.67;50.84
82305;BME280;71914;47.382;8.168;2023-09-07T11:19:32;97069.19;;;26.01;49.95
82305;BME280;71914;47.382;8.168;2023-09-07T11:21:57;97068.88;;;26.40;50.20
82305;BME280;71914;47.382;8.168;2023-09-07T11:24:23;97059.53;;;26.54;48.96
82305;BME280;71914;47.382;8.168;2023-09-07T11:26:49;97059.56;;;26.12;49.37
82305;BME280;71914;47.382;8.168;2023-09-07T11:29:15;97061.91;;;25.90;50.40
82305;BME280;71914;47.382;8.168;2023-09-07T11:31:40;97054.25;;;26.35;49.67
82305;BME280;71914;47.382;8.168;2023-09-07T11:34:10;97050.44;;;26.55;47.07
82305;BME280;71914;47.382;8.168;2023-09-07T11:36:36;97049.38;;;26.56;48.00
82305;BME280;71914;47.382;8.168;2023-09-07T11:39:01;97051.59;;;26.59;47.73
82305;BME280;71914;47.382;8.168;2023-09-07T11:41:33;97055.69;;;26.50;47.75
82305;BME280;71914;47.382;8.168;2023-09-07T11:43:59;97050.09;;;26.51;47.98
82305;BME280;71914;47.382;8.168;2023-09-07T11:46:24;97051.25;;;26.44;48.20
82305;BME280;71914;47.382;8.168;2023-09-07T11:48:50;97048.22;;;26.52;47.45
82305;BME280;71914;47.382;8.168;2023-09-07T11:51:16;97058.50;;;26.55;48.90
82305;BME280;71914;47.382;8.168;2023-09-07T11:53:42;97046.34;;;26.64;48.30
82305;BME280;71914;47.382;8.168;2023-09-07T11:56:07;97051.56;;;26.90;47.97
82305;BME280;71914;47.382;8.168;2023-09-07T11:58:33;97039.41;;;26.87;47.02
82305;BME280;71914;47.382;8.168;2023-09-07T12:00:59;97038.69;;;26.92;46.37
82305;BME280;71914;47.382;8.168;2023-09-07T12:03:24;97043.69;;;27.12;46.44
82305;BME280;71914;47.382;8.168;2023-09-07T12:05:50;97036.81;;;27.16;47.37
82305;BME280;71914;47.382;8.168;2023-09-07T12:08:16;97033.25;;;27.39;47.11
82305;BME280;71914;47.382;8.168;2023-09-07T12:10:42;97039.81;;;27.72;45.28
82305;BME280;71914;47.382;8.168;2023-09-07T12:13:08;97038.03;;;27.90;45.44
82305;BME280;71914;47.382;8.168;2023-09-07T12:15:33;97028.13;;;28.07;44.79
82305;BME280;71914;47.382;8.168;2023-09-07T12:18:00;97032.06;;;28.33;43.04
82305;BME280;71914;47.382;8.168;2023-09-07T12:20:26;97027.09;;;28.42;42.54
82305;BME280;71914;47.382;8.168;2023-09-07T12:22:51;97027.81;;;28.55;42.79
82305;BME280;71914;47.382;8.168;2023-09-07T12:25:18;97019.09;;;28.64;42.00
82305;BME280;71914;47.382;8.168;2023-09-07T12:27:44;97019.56;;;28.78;42.32
82305;BME280;71914;47.382;8.168;2023-09-07T12:30:11;97018.25;;;28.98;41.40
82305;BME280;71914;47.382;8.168;2023-09-07T12:32:38;97024.47;;;28.98;41.74
82305;BME280;71914;47.382;8.168;2023-09-07T12:35:04;97022.22;;;29.12;41.40
82305;BME280;71914;47.382;8.168;2023-09-07T12:37:33;97019.03;;;29.15;42.23
82305;BME280;71914;47.382;8.168;2023-09-07T12:39:59;97009.78;;;28.21;42.71
82305;BME280;71914;47.382;8.168;2023-09-07T12:42:26;97013.13;;;27.99;43.43
82305;BME280;71914;47.382;8.168;2023-09-07T12:44:51;97009.97;;;28.31;43.08
82305;BME280;71914;47.382;8.168;2023-09-07T12:47:17;97003.09;;;28.58;41.35
82305;BME280;71914;47.382;8.168;2023-09-07T12:49:42;97007.88;;;28.90;41.19
82305;BME280;71914;47.382;8.168;2023-09-07T12:52:08;97005.47;;;29.10;39.72
82305;BME280;71914;47.382;8.168;2023-09-07T12:54:34;97004.47;;;29.17;40.94
82305;BME280;71914;47.382;8.168;2023-09-07T12:57:01;97000.75;;;29.01;41.26